Terminal Aerodrome Forecast
Issued by NWS Duluth, MN

Home | Current Version | Previous Version | Text Only | Print | Product List | Glossary On
Versions: 1 2 3 4 5 6 7 8 9 10 11 12 13 14 15 16 17 18 19 20 21 22 23
000
FTUS43 KDLH 231700
TAFINL
TAF
KINL 231727Z 2318/2418 21003KT 3SM BR OVC004
     FM232200 27004KT 4SM -DZSN BR OVC004
     FM240100 30005KT 4SM -SN BR OVC004
     FM240900 34012G20KT 2SM -SN OVC007
     FM241500 34015G23KT 4SM -SN BLSN OVC015=

USA.gov is the U.S. government's official web portal to all federal, state and local government web resources and services.